Latest Weather Observations for Lake Julius

IDQ60801

Issued at 5:32 pm EST Friday 27 February 2015 (issued every 30 minutes, with the page automatically refreshed every 10 minutes)

About weather observations | Map of weather stations | Latest weather observations for QLD | Other Formats
Station Details ID: 029181 Name: LAKE JULIUS AWS Lat: -20.12 Lon: 139.73 Height: 237.0 m
Data from the previous 72 hours. | See also: Recent months for locations in Queensland
Date/Time
EST
Temp
°C
App
Temp
°C
Dew
Point
Rel
Hum
%
Delta-T
°C
Wind Press
QNH
hPa
Press
MSL
hPa
Rain
since 9 am
mm
Dir
 
Spd
km/h
Gust
km/h
Spd
kts
Gust
kts
27/05:30pm 38.1 38.5 16.4 27 14.0 N 9 19 5 10 - - 0.0
27/05:00pm 38.8 39.5 17.0 27 14.2 NW 9 19 5 10 - - 0.0
27/04:30pm 39.3 40.1 17.4 27 14.4 N 9 17 5 9 - - 0.0
27/04:00pm 38.0 38.6 16.9 29 13.7 N 9 15 5 8 - - 0.0
27/03:30pm 38.8 39.2 16.4 26 14.5 NNW 9 22 5 12 - - 0.0
27/03:00pm 38.5 39.4 16.7 27 14.2 NNW 7 19 4 10 - - 0.0
27/02:30pm 38.6 38.8 16.8 27 14.2 NNW 11 19 6 10 - - 0.0
27/02:00pm 38.4 37.6 17.2 28 13.9 NNW 17 26 9 14 - - 0.0
27/01:30pm 37.5 37.8 18.0 31 12.9 WNW 13 22 7 12 - - 0.0
27/01:00pm 36.3 36.2 17.9 33 12.1 NW 15 24 8 13 - - 0.0
27/12:30pm 37.7 38.1 18.2 32 12.9 NNW 13 26 7 14 - - 0.0
27/12:00pm 37.3 39.0 20.1 36 11.6 N 11 20 6 11 - - 0.0
27/11:30am 36.0 36.6 19.4 37 11.1 N 15 26 8 14 - - 0.0
27/11:00am 34.6 35.9 20.2 43 9.7 NNW 13 24 7 13 - - 0.0
27/10:30am 34.2 35.0 19.8 42 9.6 NNW 15 24 8 13 - - 0.0
27/10:00am 33.8 35.9 20.9 46 8.7 NW 11 19 6 10 - - 0.0
27/09:30am 31.5 32.9 20.4 51 7.4 NNW 13 24 7 13 - - 0.0
27/09:00am 32.1 34.5 21.6 53 7.2 WNW 11 19 6 10 - - 0.0
27/08:30am 30.4 34.0 22.0 60 5.7 W 6 7 3 4 - - 0.0
27/08:00am 29.6 33.2 22.3 65 5.0 WNW 7 13 4 7 - - 0.0
27/07:30am 29.4 33.6 22.4 66 4.8 W 4 6 2 3 - - 0.0
27/07:00am 28.4 32.5 22.2 69 4.2 NNW 4 6 2 3 - - 0.0
27/06:30am 28.5 32.5 22.0 68 4.4 WNW 4 6 2 3 - - 0.0
27/06:00am 28.4 33.2 22.2 69 4.2 CALM 0 2 0 1 - - 0.0
27/05:30am 28.6 33.0 22.1 68 4.4 WNW 2 4 1 2 - - 0.0
27/05:00am 28.8 33.2 22.1 67 4.6 NNW 2 7 1 4 - - 0.0
27/04:30am 29.0 32.5 22.2 66 4.6 N 7 13 4 7 - - 0.0
27/04:00am 29.2 32.7 21.9 64 5.0 N 6 9 3 5 - - 0.0
27/03:30am 29.4 33.3 21.9 64 5.1 N 4 9 2 5 - - 0.0
27/03:00am 29.5 33.3 21.7 63 5.3 NW 4 9 2 5 - - 0.0
27/02:30am 29.6 33.7 21.5 61 5.5 NNW 2 6 1 3 - - 0.0
27/02:00am 29.7 32.8 21.4 61 5.6 NNW 7 13 4 7 - - 0.0
27/01:30am 30.0 32.5 21.1 59 6.0 NNW 9 15 5 8 - - 0.0
27/01:00am 30.1 33.1 20.9 57 6.2 N 6 9 3 5 - - 0.0
27/12:30am 30.4 33.4 20.9 57 6.4 NW 6 7 3 4 - - 0.0
27/12:00am 30.3 33.3 20.8 56 6.4 WSW 6 13 3 7 - - 0.0
 
Date/Time
EST
Temp
°C
App
Temp
°C
Dew
Point
Rel
Hum
%
Delta-T
°C
Wind Press
QNH
hPa
Press
MSL
hPa
Rain
since 9 am
mm
Dir
 
Spd
km/h
Gust
km/h
Spd
kts
Gust
kts
26/11:30pm 30.4 33.4 20.9 57 6.4 SSE 6 13 3 7 - - 0.0
26/11:00pm 30.4 33.8 20.9 57 6.4 NW 4 7 2 4 - - 0.0
26/10:30pm 30.6 34.2 20.5 54 6.8 NNW 2 6 1 3 - - 0.0
26/10:00pm 30.8 33.6 20.4 54 7.0 NNE 6 7 3 4 - - 0.0
26/09:30pm 31.0 33.2 20.3 53 7.1 NW 9 17 5 9 - - 0.0
26/09:00pm 31.3 33.3 19.9 50 7.6 NNW 9 17 5 9 - - 0.0
26/08:30pm 31.6 31.9 19.6 49 8.0 N 17 24 9 13 - - 0.0
26/08:00pm 31.7 33.2 21.2 53 7.1 N 15 20 8 11 - - 0.0
26/07:30pm 32.0 34.0 21.5 53 7.1 N 13 19 7 10 - - 0.0
26/07:00pm 33.5 33.3 20.6 46 8.7 NNE 22 32 12 17 - - 0.0
26/06:30pm 35.3 35.2 20.0 40 10.3 NNE 20 41 11 22 - - 0.0
26/06:00pm 37.5 37.6 17.5 30 13.1 N 13 17 7 9 - - 0.0
26/05:30pm 38.0 38.3 17.9 30 13.3 N 13 17 7 9 - - 0.0
26/05:00pm 37.6 38.2 18.6 33 12.6 NW 13 20 7 11 - - 0.0
26/04:30pm 37.7 38.5 19.1 33 12.4 NNW 13 20 7 11 - - 0.0
26/04:00pm 37.3 38.0 19.7 35 11.9 NW 15 26 8 14 - - 0.0
26/03:30pm 38.7 39.6 20.0 33 12.7 N 15 20 8 11 - - 0.0
26/03:00pm 37.9 38.1 20.2 35 12.0 NNE 19 28 10 15 - - 0.0
26/02:30pm 36.0 36.1 19.9 39 10.8 NE 19 35 10 19 - - 0.0
26/02:00pm 37.7 39.9 19.1 33 12.4 ENE 6 11 3 6 - - 0.0
26/01:30pm 38.2 39.9 18.1 30 13.3 NW 6 13 3 7 - - 0.0
26/01:00pm 36.7 38.1 17.8 32 12.4 ESE 7 9 4 5 - - 0.0
26/12:30pm 36.8 39.2 18.8 34 12.0 SW 4 11 2 6 - - 0.0
26/12:00pm 35.9 38.0 19.3 37 11.1 SE 7 11 4 6 - - 0.0
26/11:30am 37.8 40.7 20.6 36 11.7 NNE 6 15 3 8 - - 0.0
26/11:00am 35.6 38.3 20.3 40 10.3 NNE 6 13 3 7 - - 0.0
26/10:30am 34.5 37.3 20.5 44 9.5 NNE 6 9 3 5 - - 0.0
26/10:00am 33.3 35.9 20.1 45 8.8 NNE 6 9 3 5 - - 0.0
26/09:30am 32.8 35.5 20.7 49 8.2 N 7 13 4 7 - - 0.0
26/09:00am 31.8 34.6 20.4 51 7.6 ENE 6 11 3 6 - - 0.0
26/08:30am 30.8 34.6 21.0 56 6.6 SSE 2 6 1 3 - - 0.0
26/08:00am 29.1 32.2 21.1 62 5.4 S 6 7 3 4 - - 0.0
26/07:30am 28.3 32.4 20.8 63 5.0 CALM 0 0 0 0 - - 0.0
26/07:00am 27.2 30.3 21.0 69 4.1 SSW 6 7 3 4 - - 0.0
26/06:30am 27.2 30.2 20.8 68 4.3 S 6 7 3 4 - - 0.0
26/06:00am 27.5 30.6 20.3 65 4.8 SW 4 6 2 3 - - 0.0
26/05:30am 27.9 31.1 20.5 64 4.9 W 4 7 2 4 - - 0.0
26/05:00am 27.9 30.6 20.2 63 5.1 W 6 9 3 5 - - 0.0
26/04:30am 28.1 31.0 20.6 63 5.0 NW 6 9 3 5 - - 0.0
26/04:00am 28.1 30.8 20.6 63 5.0 N 7 11 4 6 - - 0.0
26/03:30am 28.1 30.2 20.1 62 5.3 NNW 9 15 5 8 - - 0.0
26/03:00am 28.3 31.7 20.1 61 5.4 NW 2 7 1 4 - - 0.0
26/02:30am 28.4 30.7 19.9 60 5.6 NNW 7 11 4 6 - - 0.0
26/02:00am 28.4 30.7 19.9 60 5.6 SW 7 13 4 7 - - 0.0
26/01:30am 28.6 29.8 19.8 59 5.8 S 13 24 7 13 - - 0.0
26/01:00am 28.5 29.1 19.4 57 6.0 SSE 15 20 8 11 - - 0.0
26/12:30am 28.9 30.0 18.9 54 6.5 SE 11 22 6 12 - - 0.0
26/12:00am 30.5 32.1 17.9 47 8.1 NNE 6 11 3 6 - - 0.0
 
Date/Time
EST
Temp
°C
App
Temp
°C
Dew
Point
Rel
Hum
%
Delta-T
°C
Wind Press
QNH
hPa
Press
MSL
hPa
Rain
since 9 am
mm
Dir
 
Spd
km/h
Gust
km/h
Spd
kts
Gust
kts
25/11:30pm 30.8 31.7 16.0 40 9.3 SW 6 11 3 6 - - 0.0
25/11:00pm 30.6 28.1 16.2 41 9.1 S 24 43 13 23 - - 0.0
25/10:30pm 29.8 25.6 18.9 52 7.1 S 39 59 21 32 - - 0.0
25/10:16pm 31.9 30.5 20.5 51 7.7 S 28 61 15 33 - - 0.0
25/10:00pm 31.8 34.2 21.6 54 6.9 S 11 28 6 15 - - 0.0
25/09:30pm 31.4 34.8 21.0 54 7.0 SSW 4 6 2 3 - - 0.0
25/09:00pm 31.4 34.5 21.0 54 7.0 S 6 7 3 4 - - 0.0
25/08:30pm 31.8 35.5 20.7 51 7.5 SW 2 6 1 3 - - 0.0
25/08:00pm 31.9 34.5 20.5 51 7.7 SW 7 13 4 7 - - 0.0
25/07:30pm 32.5 35.4 20.7 49 8.0 SW 6 15 3 8 - - 0.0
25/07:00pm 33.5 34.3 19.9 44 9.1 WNW 15 30 8 16 - - 0.0
25/06:30pm 37.0 37.4 18.1 33 12.5 NNE 13 17 7 9 - - 0.0
25/06:00pm 37.7 38.9 18.2 32 12.9 NNE 9 15 5 8 - - 0.0
25/05:30pm 37.6 39.1 17.6 31 13.1 E 6 11 3 6 - - 0.0
25/05:00pm 39.1 39.7 17.8 28 14.1 NNE 11 22 6 12 - - 0.0
25/04:30pm 39.8 41.1 18.4 28 14.3 NE 9 17 5 9 - - 0.0
25/04:00pm 39.4 40.5 18.1 29 14.1 NE 9 17 5 9 - - 0.0
25/03:30pm 39.6 41.6 18.8 30 13.9 SE 6 9 3 5 - - 0.0
25/03:00pm 39.4 40.8 18.6 29 13.9 NE 9 17 5 9 - - 0.0
25/02:30pm 39.1 40.3 18.3 29 13.8 NNE 9 15 5 8 - - 0.0
25/02:00pm 38.9 41.3 19.7 32 13.0 SW 6 13 3 7 - - 0.0
25/01:30pm 39.0 40.7 19.3 31 13.3 NE 9 19 5 10 - - 0.0
25/01:00pm 38.8 41.0 19.1 31 13.2 E 6 13 3 7 - - 0.0
25/12:30pm 37.8 39.6 18.7 32 12.7 N 7 17 4 9 - - 0.0
25/12:00pm 37.0 38.0 19.4 35 11.8 NNE 13 19 7 10 - - 0.0
25/11:30am 35.1 35.5 18.2 36 11.1 N 13 20 7 11 - - 0.0
25/11:00am 35.1 36.7 19.1 39 10.6 NNW 9 19 5 10 - - 0.0
25/10:30am 34.4 36.2 19.6 41 9.9 NNE 9 20 5 11 - - 0.0
25/10:00am 32.7 34.7 19.2 44 8.9 NW 7 17 4 9 - - 0.0
25/09:30am 32.2 34.0 19.5 47 8.4 NNW 9 17 5 9 - - 0.0
25/09:00am 30.3 32.9 20.0 54 6.8 NW 6 13 3 7 - - 0.0
25/08:30am 29.0 32.9 20.4 59 5.7 CALM 0 2 0 1 - - 0.0
25/08:00am 28.3 31.8 20.3 62 5.3 NNW 2 7 1 4 - - 0.0
25/07:30am 27.5 30.9 20.1 64 4.9 W 2 6 1 3 - - 0.0
25/07:00am 26.9 30.4 20.3 67 4.4 NNW 2 7 1 4 - - 0.0
25/06:30am 26.7 29.3 20.5 69 4.1 NNW 7 11 4 6 - - 0.0
25/06:00am 26.5 29.8 20.8 71 3.8 NW 4 11 2 6 - - 0.0
25/05:30am 26.2 29.2 21.2 74 3.3 N 7 11 4 6 - - 0.0
25/05:00am 26.0 29.4 21.0 74 3.3 NE 4 7 2 4 - - 0.0
25/04:30am 26.2 28.2 20.8 72 3.6 ENE 11 17 6 9 - - 0.0
25/04:00am 26.7 27.8 20.5 69 4.1 ENE 15 19 8 10 - - 0.0
25/03:30am 28.1 30.0 20.6 63 5.0 ENE 11 22 6 12 - - 0.0
25/03:00am 29.1 31.6 20.3 59 5.8 NE 7 13 4 7 - - 0.0
25/02:30am 29.2 30.3 20.4 59 5.9 N 15 19 8 10 - - 0.0
25/02:00am 29.3 30.9 20.7 59 5.7 N 13 19 7 10 - - 0.0
25/01:30am 29.6 32.3 20.7 58 6.0 N 7 11 4 6 - - 0.0
25/01:00am 29.7 32.5 20.8 58 6.0 NE 7 9 4 5 - - 0.0
25/12:30am 30.2 32.2 19.9 54 6.8 NNE 9 15 5 8 - - 0.0
25/12:00am 31.7 33.6 19.7 49 8.0 N 9 13 5 7 - - 0.0
 
Date/Time
EST
Temp
°C
App
Temp
°C
Dew
Point
Rel
Hum
%
Delta-T
°C
Wind Press
QNH
hPa
Press
MSL
hPa
Rain
since 9 am
mm
Dir
 
Spd
km/h
Gust
km/h
Spd
kts
Gust
kts
24/11:30pm 31.5 33.8 19.5 49 7.9 NNE 6 11 3 6 - - 0.0
24/11:00pm 32.0 33.7 19.3 47 8.4 ENE 9 15 5 8 - - 0.0
24/10:30pm 32.5 33.5 18.7 44 9.1 NNE 11 17 6 9 - - 0.0
24/10:00pm 34.5 35.5 16.8 34 11.4 E 7 15 4 8 - - 0.0
24/09:30pm 35.4 35.2 17.6 35 11.6 SE 15 35 8 19 - - 0.0
24/09:00pm 36.4 37.9 17.5 32 12.3 WSW 6 7 3 4 - - 0.0
24/08:30pm 36.6 38.0 17.7 32 12.4 W 7 13 4 7 - - 0.0
24/08:00pm 36.9 38.2 17.5 32 12.7 W 7 15 4 8 - - 0.0
24/07:30pm 37.2 38.2 17.7 31 12.8 WSW 9 15 5 8 - - 0.0
24/07:00pm 37.5 38.0 17.5 30 13.1 SW 11 19 6 10 - - 0.0
24/06:30pm 38.2 39.7 18.1 30 13.3 WSW 7 17 4 9 - - 0.0
24/06:00pm 38.2 39.3 18.1 30 13.3 W 9 19 5 10 - - 0.0

Other Formats:

Comma delimited format used in spreadsheet applications
http://www.bom.gov.au/fwo/IDQ60801/IDQ60801.94348.axf

JavaScript Object Notation format (JSON) in row-major order
http://www.bom.gov.au/fwo/IDQ60801/IDQ60801.94348.json